sensor_id;sensor_type;location;lat;lon;timestamp;temperature;humidity
27270;DHT22;14769;56.934;24.176;2022-07-30T00:00:36;12.10;99.90
27270;DHT22;14769;56.934;24.176;2022-07-30T00:01:38;12.10;99.90
27270;DHT22;14769;56.934;24.176;2022-07-30T00:02:41;12.10;99.90
27270;DHT22;14769;56.934;24.176;2022-07-30T00:03:43;12.00;99.90
27270;DHT22;14769;56.934;24.176;2022-07-30T00:04:45;12.00;99.90
27270;DHT22;14769;56.934;24.176;2022-07-30T00:05:47;12.00;99.90
27270;DHT22;14769;56.934;24.176;2022-07-30T00:06:50;11.90;99.90
27270;DHT22;14769;56.934;24.176;2022-07-30T00:07:52;11.90;99.90
27270;DHT22;14769;56.934;24.176;2022-07-30T00:08:54;11.90;99.90
27270;DHT22;14769;56.934;24.176;2022-07-30T00:09:56;11.90;99.90
27270;DHT22;14769;56.934;24.176;2022-07-30T00:10:58;12.00;99.90
27270;DHT22;14769;56.934;24.176;2022-07-30T00:11:59;11.90;99.90
27270;DHT22;14769;56.934;24.176;2022-07-30T00:13:02;12.00;99.90
27270;DHT22;14769;56.934;24.176;2022-07-30T00:14:04;12.00;99.90
27270;DHT22;14769;56.934;24.176;2022-07-30T00:15:07;11.90;99.90
27270;DHT22;14769;56.934;24.176;2022-07-30T00:16:09;11.90;99.90
27270;DHT22;14769;56.934;24.176;2022-07-30T00:17:12;11.90;99.90
27270;DHT22;14769;56.934;24.176;2022-07-30T00:18:15;11.90;99.90
27270;DHT22;14769;56.934;24.176;2022-07-30T00:19:17;11.80;99.90
27270;DHT22;14769;56.934;24.176;2022-07-30T00:20:21;11.70;99.90
27270;DHT22;14769;56.934;24.176;2022-07-30T00:21:28;11.70;99.90
27270;DHT22;14769;56.934;24.176;2022-07-30T00:22:39;11.60;99.90
27270;DHT22;14769;56.934;24.176;2022-07-30T00:23:41;11.60;99.90
27270;DHT22;14769;56.934;24.176;2022-07-30T00:25:02;11.60;99.90
27270;DHT22;14769;56.934;24.176;2022-07-30T00:26:04;11.60;99.90
27270;DHT22;14769;56.934;24.176;2022-07-30T00:27:07;11.70;99.90
27270;DHT22;14769;56.934;24.176;2022-07-30T00:28:09;11.70;99.90
27270;DHT22;14769;56.934;24.176;2022-07-30T00:29:11;11.60;99.90
27270;DHT22;14769;56.934;24.176;2022-07-30T00:30:14;11.60;99.90
27270;DHT22;14769;56.934;24.176;2022-07-30T00:31:16;11.60;99.90
27270;DHT22;14769;56.934;24.176;2022-07-30T00:32:18;11.50;99.90
27270;DHT22;14769;56.934;24.176;2022-07-30T00:33:19;11.50;99.90
27270;DHT22;14769;56.934;24.176;2022-07-30T00:34:22;11.40;99.90
27270;DHT22;14769;56.934;24.176;2022-07-30T00:35:23;11.40;99.90
27270;DHT22;14769;56.934;24.176;2022-07-30T00:36:28;11.40;99.90
27270;DHT22;14769;56.934;24.176;2022-07-30T00:37:30;11.40;99.90
27270;DHT22;14769;56.934;24.176;2022-07-30T00:38:32;11.40;99.90
27270;DHT22;14769;56.934;24.176;2022-07-30T00:39:33;11.40;99.90
27270;DHT22;14769;56.934;24.176;2022-07-30T00:40:35;11.40;99.90
27270;DHT22;14769;56.934;24.176;2022-07-30T00:41:57;11.50;99.90
27270;DHT22;14769;56.934;24.176;2022-07-30T00:42:59;11.50;99.90
27270;DHT22;14769;56.934;24.176;2022-07-30T00:44:01;11.50;99.90
27270;DHT22;14769;56.934;24.176;2022-07-30T00:45:05;11.50;99.90
27270;DHT22;14769;56.934;24.176;2022-07-30T00:46:07;11.60;99.90
27270;DHT22;14769;56.934;24.176;2022-07-30T00:47:09;11.60;99.90
27270;DHT22;14769;56.934;24.176;2022-07-30T00:48:12;11.60;99.90
27270;DHT22;14769;56.934;24.176;2022-07-30T00:49:14;11.70;99.90
27270;DHT22;14769;56.934;24.176;2022-07-30T00:50:17;11.70;99.90
27270;DHT22;14769;56.934;24.176;2022-07-30T00:51:19;11.70;99.90
27270;DHT22;14769;56.934;24.176;2022-07-30T00:52:20;11.70;99.90
27270;DHT22;14769;56.934;24.176;2022-07-30T00:53:23;11.70;99.90
27270;DHT22;14769;56.934;24.176;2022-07-30T00:54:25;11.80;99.90
27270;DHT22;14769;56.934;24.176;2022-07-30T00:55:27;11.70;99.90
27270;DHT22;14769;56.934;24.176;2022-07-30T00:56:30;11.70;99.90
27270;DHT22;14769;56.934;24.176;2022-07-30T00:57:32;11.60;99.90
27270;DHT22;14769;56.934;24.176;2022-07-30T00:58:35;11.60;99.90
27270;DHT22;14769;56.934;24.176;2022-07-30T00:59:37;11.60;99.90
27270;DHT22;14769;56.934;24.176;2022-07-30T01:00:38;11.60;99.90
27270;DHT22;14769;56.934;24.176;2022-07-30T01:01:41;11.60;99.90
27270;DHT22;14769;56.934;24.176;2022-07-30T01:02:43;11.60;99.90
27270;DHT22;14769;56.934;24.176;2022-07-30T01:03:45;11.60;99.90
27270;DHT22;14769;56.934;24.176;2022-07-30T01:04:47;11.60;99.90
27270;DHT22;14769;56.934;24.176;2022-07-30T01:05:49;11.70;99.90
27270;DHT22;14769;56.934;24.176;2022-07-30T01:06:51;11.70;99.90
27270;DHT22;14769;56.934;24.176;2022-07-30T01:07:53;11.70;99.90
27270;DHT22;14769;56.934;24.176;2022-07-30T01:08:55;11.80;99.90
27270;DHT22;14769;56.934;24.176;2022-07-30T01:09:57;11.80;99.90
27270;DHT22;14769;56.934;24.176;2022-07-30T01:10:59;11.80;99.90
27270;DHT22;14769;56.934;24.176;2022-07-30T01:12:01;11.80;99.90
27270;DHT22;14769;56.934;24.176;2022-07-30T01:13:04;11.80;99.90
27270;DHT22;14769;56.934;24.176;2022-07-30T01:14:08;11.80;99.90
27270;DHT22;14769;56.934;24.176;2022-07-30T01:15:11;11.70;99.90
27270;DHT22;14769;56.934;24.176;2022-07-30T01:16:13;11.80;99.90
27270;DHT22;14769;56.934;24.176;2022-07-30T01:17:15;11.80;99.90
27270;DHT22;14769;56.934;24.176;2022-07-30T01:18:17;11.80;99.90
27270;DHT22;14769;56.934;24.176;2022-07-30T01:19:23;11.80;99.90
27270;DHT22;14769;56.934;24.176;2022-07-30T01:20:55;11.80;99.90
27270;DHT22;14769;56.934;24.176;2022-07-30T01:23:25;11.70;99.90
27270;DHT22;14769;56.934;24.176;2022-07-30T01:24:39;11.60;99.90
27270;DHT22;14769;56.934;24.176;2022-07-30T01:26:01;11.70;99.90
27270;DHT22;14769;56.934;24.176;2022-07-30T01:27:06;11.60;99.90
27270;DHT22;14769;56.934;24.176;2022-07-30T01:28:12;11.60;99.90
27270;DHT22;14769;56.934;24.176;2022-07-30T01:29:19;11.60;99.90
27270;DHT22;14769;56.934;24.176;2022-07-30T01:30:24;11.60;99.90
27270;DHT22;14769;56.934;24.176;2022-07-30T01:32:41;11.60;99.90
27270;DHT22;14769;56.934;24.176;2022-07-30T01:33:46;11.70;99.90
27270;DHT22;14769;56.934;24.176;2022-07-30T01:34:49;11.70;99.90
27270;DHT22;14769;56.934;24.176;2022-07-30T01:35:52;11.70;99.90
27270;DHT22;14769;56.934;24.176;2022-07-30T01:36:56;11.70;99.90
27270;DHT22;14769;56.934;24.176;2022-07-30T01:38:02;11.70;99.90
27270;DHT22;14769;56.934;24.176;2022-07-30T01:39:05;11.80;99.90
27270;DHT22;14769;56.934;24.176;2022-07-30T01:40:08;11.80;99.90
27270;DHT22;14769;56.934;24.176;2022-07-30T01:41:10;11.80;99.90
27270;DHT22;14769;56.934;24.176;2022-07-30T01:42:13;11.80;99.90
27270;DHT22;14769;56.934;24.176;2022-07-30T01:43:17;11.90;99.90
27270;DHT22;14769;56.934;24.176;2022-07-30T01:44:21;11.90;99.90
27270;DHT22;14769;56.934;24.176;2022-07-30T01:45:26;11.90;99.90
27270;DHT22;14769;56.934;24.176;2022-07-30T01:46:29;11.90;99.90
27270;DHT22;14769;56.934;24.176;2022-07-30T01:47:33;11.90;99.90
27270;DHT22;14769;56.934;24.176;2022-07-30T01:48:38;11.90;99.90
27270;DHT22;14769;56.934;24.176;2022-07-30T01:49:44;11.90;99.90
27270;DHT22;14769;56.934;24.176;2022-07-30T01:50:48;11.90;99.90
27270;DHT22;14769;56.934;24.176;2022-07-30T01:51:52;11.90;99.90
27270;DHT22;14769;56.934;24.176;2022-07-30T01:52:56;11.90;99.90
27270;DHT22;14769;56.934;24.176;2022-07-30T01:53:59;11.90;99.90
27270;DHT22;14769;56.934;24.176;2022-07-30T01:55:02;11.90;99.90
27270;DHT22;14769;56.934;24.176;2022-07-30T01:56:14;11.90;99.90
27270;DHT22;14769;56.934;24.176;2022-07-30T01:57:19;11.90;99.90
27270;DHT22;14769;56.934;24.176;2022-07-30T01:58:25;11.90;99.90
27270;DHT22;14769;56.934;24.176;2022-07-30T01:59:27;11.90;99.90
27270;DHT22;14769;56.934;24.176;2022-07-30T02:00:33;11.90;99.90
27270;DHT22;14769;56.934;24.176;2022-07-30T02:01:37;11.90;99.90
27270;DHT22;14769;56.934;24.176;2022-07-30T02:02:39;11.80;99.90
27270;DHT22;14769;56.934;24.176;2022-07-30T02:03:42;11.80;99.90
27270;DHT22;14769;56.934;24.176;2022-07-30T02:04:44;11.80;99.90
27270;DHT22;14769;56.934;24.176;2022-07-30T02:05:50;11.80;99.90
27270;DHT22;14769;56.934;24.176;2022-07-30T02:07:02;11.80;99.90
27270;DHT22;14769;56.934;24.176;2022-07-30T02:08:06;11.70;99.90
27270;DHT22;14769;56.934;24.176;2022-07-30T02:09:14;11.70;99.90
27270;DHT22;14769;56.934;24.176;2022-07-30T02:11:03;11.70;99.90
27270;DHT22;14769;56.934;24.176;2022-07-30T02:11:48;11.70;99.90
27270;DHT22;14769;56.934;24.176;2022-07-30T02:13:12;11.70;99.90
27270;DHT22;14769;56.934;24.176;2022-07-30T02:14:21;11.70;99.90
27270;DHT22;14769;56.934;24.176;2022-07-30T02:16:35;11.70;99.90
27270;DHT22;14769;56.934;24.176;2022-07-30T02:17:42;11.70;99.90
27270;DHT22;14769;56.934;24.176;2022-07-30T02:19:01;11.70;99.90
27270;DHT22;14769;56.934;24.176;2022-07-30T02:20:06;11.70;99.90
27270;DHT22;14769;56.934;24.176;2022-07-30T02:21:11;11.70;99.90
27270;DHT22;14769;56.934;24.176;2022-07-30T02:22:15;11.80;99.90
27270;DHT22;14769;56.934;24.176;2022-07-30T02:23:20;11.80;99.90
27270;DHT22;14769;56.934;24.176;2022-07-30T02:24:26;11.80;99.90
27270;DHT22;14769;56.934;24.176;2022-07-30T02:25:32;11.80;99.90
27270;DHT22;14769;56.934;24.176;2022-07-30T02:26:37;11.80;99.90
27270;DHT22;14769;56.934;24.176;2022-07-30T02:27:42;11.90;99.90
27270;DHT22;14769;56.934;24.176;2022-07-30T02:28:50;11.90;99.90
27270;DHT22;14769;56.934;24.176;2022-07-30T02:29:55;11.90;99.90
27270;DHT22;14769;56.934;24.176;2022-07-30T02:30:59;11.90;99.90
27270;DHT22;14769;56.934;24.176;2022-07-30T02:32:07;11.90;99.90
27270;DHT22;14769;56.934;24.176;2022-07-30T02:33:10;11.90;99.90
27270;DHT22;14769;56.934;24.176;2022-07-30T02:34:13;11.90;99.90
27270;DHT22;14769;56.934;24.176;2022-07-30T02:35:19;11.90;99.90
27270;DHT22;14769;56.934;24.176;2022-07-30T02:36:23;11.90;99.90
27270;DHT22;14769;56.934;24.176;2022-07-30T02:37:28;11.90;99.90
27270;DHT22;14769;56.934;24.176;2022-07-30T02:38:45;12.00;99.90
27270;DHT22;14769;56.934;24.176;2022-07-30T02:39:49;11.90;99.90
27270;DHT22;14769;56.934;24.176;2022-07-30T02:40:54;11.90;99.90
27270;DHT22;14769;56.934;24.176;2022-07-30T02:41:58;11.90;99.90
27270;DHT22;14769;56.934;24.176;2022-07-30T02:43:00;11.90;99.90
27270;DHT22;14769;56.934;24.176;2022-07-30T02:44:03;11.90;99.90
27270;DHT22;14769;56.934;24.176;2022-07-30T02:45:06;11.90;99.90
27270;DHT22;14769;56.934;24.176;2022-07-30T02:46:10;11.80;99.90
27270;DHT22;14769;56.934;24.176;2022-07-30T02:47:14;11.80;99.90
27270;DHT22;14769;56.934;24.176;2022-07-30T02:48:19;11.80;99.90
27270;DHT22;14769;56.934;24.176;2022-07-30T02:49:36;11.80;99.90
27270;DHT22;14769;56.934;24.176;2022-07-30T02:50:40;11.80;99.90
27270;DHT22;14769;56.934;24.176;2022-07-30T02:51:46;11.70;99.90
27270;DHT22;14769;56.934;24.176;2022-07-30T02:52:48;11.80;99.90
27270;DHT22;14769;56.934;24.176;2022-07-30T02:53:52;11.80;99.90
27270;DHT22;14769;56.934;24.176;2022-07-30T02:54:56;11.80;99.90
27270;DHT22;14769;56.934;24.176;2022-07-30T02:56:00;11.80;99.90
27270;DHT22;14769;56.934;24.176;2022-07-30T02:57:04;11.80;99.90
27270;DHT22;14769;56.934;24.176;2022-07-30T02:58:08;11.80;99.90
27270;DHT22;14769;56.934;24.176;2022-07-30T02:59:11;11.90;99.90
27270;DHT22;14769;56.934;24.176;2022-07-30T03:00:13;11.90;99.90
27270;DHT22;14769;56.934;24.176;2022-07-30T03:01:17;11.90;99.90
27270;DHT22;14769;56.934;24.176;2022-07-30T03:02:21;12.00;99.90
27270;DHT22;14769;56.934;24.176;2022-07-30T03:03:31;12.10;99.90
27270;DHT22;14769;56.934;24.176;2022-07-30T03:04:34;12.10;99.90
27270;DHT22;14769;56.934;24.176;2022-07-30T03:05:38;12.10;99.90
27270;DHT22;14769;56.934;24.176;2022-07-30T03:06:42;12.20;99.90
27270;DHT22;14769;56.934;24.176;2022-07-30T03:07:45;12.20;99.90
27270;DHT22;14769;56.934;24.176;2022-07-30T03:08:48;12.20;99.90
27270;DHT22;14769;56.934;24.176;2022-07-30T03:09:51;12.30;99.90
27270;DHT22;14769;56.934;24.176;2022-07-30T03:10:55;12.30;99.90
27270;DHT22;14769;56.934;24.176;2022-07-30T03:11:58;12.30;99.90
27270;DHT22;14769;56.934;24.176;2022-07-30T03:13:03;12.30;99.90
27270;DHT22;14769;56.934;24.176;2022-07-30T03:14:06;12.30;99.90
27270;DHT22;14769;56.934;24.176;2022-07-30T03:15:09;12.30;99.90
27270;DHT22;14769;56.934;24.176;2022-07-30T03:16:14;12.30;99.90
27270;DHT22;14769;56.934;24.176;2022-07-30T03:17:18;12.40;99.90
27270;DHT22;14769;56.934;24.176;2022-07-30T03:18:22;12.40;99.90
27270;DHT22;14769;56.934;24.176;2022-07-30T03:19:28;12.40;99.90
27270;DHT22;14769;56.934;24.176;2022-07-30T03:20:33;12.30;99.90
27270;DHT22;14769;56.934;24.176;2022-07-30T03:21:37;12.30;99.90
27270;DHT22;14769;56.934;24.176;2022-07-30T03:22:44;12.40;99.90
27270;DHT22;14769;56.934;24.176;2022-07-30T03:23:49;12.40;99.90
27270;DHT22;14769;56.934;24.176;2022-07-30T03:24:52;12.40;99.90
27270;DHT22;14769;56.934;24.176;2022-07-30T03:25:58;12.40;99.90
27270;DHT22;14769;56.934;24.176;2022-07-30T03:27:02;12.50;99.90
27270;DHT22;14769;56.934;24.176;2022-07-30T03:28:05;12.50;99.90
27270;DHT22;14769;56.934;24.176;2022-07-30T03:29:09;12.50;99.90
27270;DHT22;14769;56.934;24.176;2022-07-30T03:30:11;12.50;99.90
27270;DHT22;14769;56.934;24.176;2022-07-30T03:31:14;12.60;99.90
27270;DHT22;14769;56.934;24.176;2022-07-30T03:32:17;12.60;99.90
27270;DHT22;14769;56.934;24.176;2022-07-30T03:33:27;12.60;99.90
27270;DHT22;14769;56.934;24.176;2022-07-30T03:34:40;12.70;99.90
27270;DHT22;14769;56.934;24.176;2022-07-30T03:35:44;12.60;99.90
27270;DHT22;14769;56.934;24.176;2022-07-30T03:36:48;12.60;99.90
27270;DHT22;14769;56.934;24.176;2022-07-30T03:37:51;12.60;99.90
27270;DHT22;14769;56.934;24.176;2022-07-30T03:38:54;12.70;99.90
27270;DHT22;14769;56.934;24.176;2022-07-30T03:39:56;12.70;99.90
27270;DHT22;14769;56.934;24.176;2022-07-30T03:40:59;12.70;99.90
27270;DHT22;14769;56.934;24.176;2022-07-30T03:42:02;12.70;99.90
27270;DHT22;14769;56.934;24.176;2022-07-30T03:43:06;12.80;99.90
27270;DHT22;14769;56.934;24.176;2022-07-30T03:44:29;12.80;99.90
27270;DHT22;14769;56.934;24.176;2022-07-30T03:45:34;12.80;99.90
27270;DHT22;14769;56.934;24.176;2022-07-30T03:46:37;12.90;99.90
27270;DHT22;14769;56.934;24.176;2022-07-30T03:47:40;12.90;99.90
27270;DHT22;14769;56.934;24.176;2022-07-30T03:48:42;13.00;99.90
27270;DHT22;14769;56.934;24.176;2022-07-30T03:49:45;13.00;99.90
27270;DHT22;14769;56.934;24.176;2022-07-30T03:50:47;13.10;99.90
27270;DHT22;14769;56.934;24.176;2022-07-30T03:51:51;13.10;99.90
27270;DHT22;14769;56.934;24.176;2022-07-30T03:52:54;13.20;99.90
27270;DHT22;14769;56.934;24.176;2022-07-30T03:53:56;13.20;99.90
27270;DHT22;14769;56.934;24.176;2022-07-30T03:54:58;13.30;99.90
27270;DHT22;14769;56.934;24.176;2022-07-30T03:56:02;13.40;99.90
27270;DHT22;14769;56.934;24.176;2022-07-30T03:57:04;13.40;99.90
27270;DHT22;14769;56.934;24.176;2022-07-30T03:58:06;13.50;99.90
27270;DHT22;14769;56.934;24.176;2022-07-30T03:59:08;13.50;99.90
27270;DHT22;14769;56.934;24.176;2022-07-30T04:00:14;13.60;99.90
27270;DHT22;14769;56.934;24.176;2022-07-30T04:01:16;13.70;99.90
27270;DHT22;14769;56.934;24.176;2022-07-30T04:02:17;13.80;99.90
27270;DHT22;14769;56.934;24.176;2022-07-30T04:03:26;13.80;99.90
27270;DHT22;14769;56.934;24.176;2022-07-30T04:04:29;13.90;99.90
27270;DHT22;14769;56.934;24.176;2022-07-30T04:05:31;14.00;99.90
27270;DHT22;14769;56.934;24.176;2022-07-30T04:06:41;14.00;99.90
27270;DHT22;14769;56.934;24.176;2022-07-30T04:07:44;14.10;99.90
27270;DHT22;14769;56.934;24.176;2022-07-30T04:08:47;14.20;99.90
27270;DHT22;14769;56.934;24.176;2022-07-30T04:09:49;14.20;99.90
27270;DHT22;14769;56.934;24.176;2022-07-30T04:10:51;14.30;99.90
27270;DHT22;14769;56.934;24.176;2022-07-30T04:11:53;14.30;99.90
27270;DHT22;14769;56.934;24.176;2022-07-30T04:12:55;14.30;99.90
27270;DHT22;14769;56.934;24.176;2022-07-30T04:13:57;14.40;99.90
27270;DHT22;14769;56.934;24.176;2022-07-30T04:14:59;14.40;99.90
27270;DHT22;14769;56.934;24.176;2022-07-30T04:16:12;14.40;99.90
27270;DHT22;14769;56.934;24.176;2022-07-30T04:17:45;14.50;99.90
27270;DHT22;14769;56.934;24.176;2022-07-30T04:18:50;14.60;99.90
27270;DHT22;14769;56.934;24.176;2022-07-30T04:19:59;14.70;99.90
27270;DHT22;14769;56.934;24.176;2022-07-30T04:21:02;14.80;99.90
27270;DHT22;14769;56.934;24.176;2022-07-30T04:22:06;14.80;99.90
27270;DHT22;14769;56.934;24.176;2022-07-30T04:23:10;14.90;99.90
27270;DHT22;14769;56.934;24.176;2022-07-30T04:24:13;15.00;99.90
27270;DHT22;14769;56.934;24.176;2022-07-30T04:25:17;15.00;99.90
27270;DHT22;14769;56.934;24.176;2022-07-30T04:26:25;15.10;99.90
27270;DHT22;14769;56.934;24.176;2022-07-30T04:27:28;15.10;99.90
27270;DHT22;14769;56.934;24.176;2022-07-30T04:28:31;15.20;99.90
27270;DHT22;14769;56.934;24.176;2022-07-30T04:29:33;15.30;99.90
27270;DHT22;14769;56.934;24.176;2022-07-30T04:30:35;15.40;99.90
27270;DHT22;14769;56.934;24.176;2022-07-30T04:31:38;15.50;99.90
27270;DHT22;14769;56.934;24.176;2022-07-30T04:32:42;15.50;99.90
27270;DHT22;14769;56.934;24.176;2022-07-30T04:33:45;15.60;99.90
27270;DHT22;14769;56.934;24.176;2022-07-30T04:34:52;15.60;99.90
27270;DHT22;14769;56.934;24.176;2022-07-30T04:35:54;15.70;99.90
27270;DHT22;14769;56.934;24.176;2022-07-30T04:36:56;15.70;99.90
27270;DHT22;14769;56.934;24.176;2022-07-30T04:37:58;15.70;99.90
27270;DHT22;14769;56.934;24.176;2022-07-30T04:39:00;15.70;99.90
27270;DHT22;14769;56.934;24.176;2022-07-30T04:40:02;15.70;99.90
27270;DHT22;14769;56.934;24.176;2022-07-30T04:41:04;15.70;99.90
27270;DHT22;14769;56.934;24.176;2022-07-30T04:42:06;15.80;99.90
27270;DHT22;14769;56.934;24.176;2022-07-30T04:43:08;15.80;99.90
27270;DHT22;14769;56.934;24.176;2022-07-30T04:44:10;15.80;99.90
27270;DHT22;14769;56.934;24.176;2022-07-30T04:45:12;15.80;99.90
27270;DHT22;14769;56.934;24.176;2022-07-30T04:46:14;15.80;99.90
27270;DHT22;14769;56.934;24.176;2022-07-30T04:47:17;15.90;99.90
27270;DHT22;14769;56.934;24.176;2022-07-30T04:48:19;15.90;99.90
27270;DHT22;14769;56.934;24.176;2022-07-30T04:49:21;16.00;99.90
27270;DHT22;14769;56.934;24.176;2022-07-30T04:50:25;16.00;99.90
27270;DHT22;14769;56.934;24.176;2022-07-30T04:51:31;16.00;99.90
27270;DHT22;14769;56.934;24.176;2022-07-30T04:52:35;16.00;99.90
27270;DHT22;14769;56.934;24.176;2022-07-30T04:53:37;16.00;99.90
27270;DHT22;14769;56.934;24.176;2022-07-30T04:54:47;16.00;99.90
27270;DHT22;14769;56.934;24.176;2022-07-30T04:55:51;16.00;99.90
27270;DHT22;14769;56.934;24.176;2022-07-30T04:56:53;16.00;99.90
27270;DHT22;14769;56.934;24.176;2022-07-30T04:57:55;15.90;99.90
27270;DHT22;14769;56.934;24.176;2022-07-30T04:58:58;15.90;99.90
27270;DHT22;14769;56.934;24.176;2022-07-30T05:00:00;15.90;99.90
27270;DHT22;14769;56.934;24.176;2022-07-30T05:01:02;15.90;99.90
27270;DHT22;14769;56.934;24.176;2022-07-30T05:02:05;15.90;99.90
27270;DHT22;14769;56.934;24.176;2022-07-30T05:03:12;15.80;99.90
27270;DHT22;14769;56.934;24.176;2022-07-30T05:04:14;15.90;99.90
27270;DHT22;14769;56.934;24.176;2022-07-30T05:05:17;15.90;99.90
27270;DHT22;14769;56.934;24.176;2022-07-30T05:06:20;15.90;99.90
27270;DHT22;14769;56.934;24.176;2022-07-30T05:07:23;16.00;99.90
27270;DHT22;14769;56.934;24.176;2022-07-30T05:08:26;16.00;99.90
27270;DHT22;14769;56.934;24.176;2022-07-30T05:09:30;16.10;99.90
27270;DHT22;14769;56.934;24.176;2022-07-30T05:10:32;16.10;99.90
27270;DHT22;14769;56.934;24.176;2022-07-30T05:11:34;16.10;99.90
27270;DHT22;14769;56.934;24.176;2022-07-30T05:12:36;16.10;99.90
27270;DHT22;14769;56.934;24.176;2022-07-30T05:13:45;16.10;99.90
27270;DHT22;14769;56.934;24.176;2022-07-30T05:14:49;16.10;99.90
27270;DHT22;14769;56.934;24.176;2022-07-30T05:15:50;16.00;99.90
27270;DHT22;14769;56.934;24.176;2022-07-30T05:16:53;16.00;99.90
27270;DHT22;14769;56.934;24.176;2022-07-30T05:17:56;16.00;99.90
27270;DHT22;14769;56.934;24.176;2022-07-30T05:18:57;15.90;99.90
27270;DHT22;14769;56.934;24.176;2022-07-30T05:20:00;15.90;99.90
27270;DHT22;14769;56.934;24.176;2022-07-30T05:21:03;15.90;99.90
27270;DHT22;14769;56.934;24.176;2022-07-30T05:22:04;15.90;99.90
27270;DHT22;14769;56.934;24.176;2022-07-30T05:23:07;15.80;99.90
27270;DHT22;14769;56.934;24.176;2022-07-30T05:24:09;15.80;99.90
27270;DHT22;14769;56.934;24.176;2022-07-30T05:25:11;15.80;99.90
27270;DHT22;14769;56.934;24.176;2022-07-30T05:26:20;15.80;99.90
27270;DHT22;14769;56.934;24.176;2022-07-30T05:27:28;15.80;99.90
27270;DHT22;14769;56.934;24.176;2022-07-30T05:28:30;15.80;99.90
27270;DHT22;14769;56.934;24.176;2022-07-30T05:29:32;15.70;99.90
27270;DHT22;14769;56.934;24.176;2022-07-30T05:30:36;15.70;99.90
27270;DHT22;14769;56.934;24.176;2022-07-30T05:31:42;15.70;99.90
27270;DHT22;14769;56.934;24.176;2022-07-30T05:32:45;15.70;99.90
27270;DHT22;14769;56.934;24.176;2022-07-30T05:33:47;15.70;99.90
27270;DHT22;14769;56.934;24.176;2022-07-30T05:34:49;15.70;99.90
27270;DHT22;14769;56.934;24.176;2022-07-30T05:35:51;15.70;99.90
27270;DHT22;14769;56.934;24.176;2022-07-30T05:36:53;15.70;99.90
27270;DHT22;14769;56.934;24.176;2022-07-30T05:37:55;15.60;99.90
27270;DHT22;14769;56.934;24.176;2022-07-30T05:38:57;15.60;99.90
27270;DHT22;14769;56.934;24.176;2022-07-30T05:39:59;15.60;99.90
27270;DHT22;14769;56.934;24.176;2022-07-30T05:41:04;15.60;99.90
27270;DHT22;14769;56.934;24.176;2022-07-30T05:42:26;15.60;99.90
27270;DHT22;14769;56.934;24.176;2022-07-30T05:43:28;15.60;99.90
27270;DHT22;14769;56.934;24.176;2022-07-30T05:44:30;15.70;99.90
27270;DHT22;14769;56.934;24.176;2022-07-30T05:45:32;15.70;99.90
27270;DHT22;14769;56.934;24.176;2022-07-30T05:46:33;15.70;99.90
27270;DHT22;14769;56.934;24.176;2022-07-30T05:47:36;15.80;99.90
27270;DHT22;14769;56.934;24.176;2022-07-30T05:48:37;15.80;99.90
27270;DHT22;14769;56.934;24.176;2022-07-30T05:49:40;15.90;99.90
27270;DHT22;14769;56.934;24.176;2022-07-30T05:50:42;15.90;99.90
27270;DHT22;14769;56.934;24.176;2022-07-30T05:51:44;16.00;99.90
27270;DHT22;14769;56.934;24.176;2022-07-30T05:52:46;16.00;99.90
27270;DHT22;14769;56.934;24.176;2022-07-30T05:53:48;16.10;99.90
27270;DHT22;14769;56.934;24.176;2022-07-30T05:54:50;16.10;99.90
27270;DHT22;14769;56.934;24.176;2022-07-30T05:55:52;16.20;99.90
27270;DHT22;14769;56.934;24.176;2022-07-30T05:56:53;16.30;99.90
27270;DHT22;14769;56.934;24.176;2022-07-30T05:57:55;16.30;99.90
27270;DHT22;14769;56.934;24.176;2022-07-30T05:58:57;16.40;99.90
27270;DHT22;14769;56.934;24.176;2022-07-30T05:59:59;16.40;99.90
27270;DHT22;14769;56.934;24.176;2022-07-30T06:01:01;16.50;99.90
27270;DHT22;14769;56.934;24.176;2022-07-30T06:02:03;16.60;99.90
27270;DHT22;14769;56.934;24.176;2022-07-30T06:03:08;16.60;99.90
27270;DHT22;14769;56.934;24.176;2022-07-30T06:04:10;16.70;99.90
27270;DHT22;14769;56.934;24.176;2022-07-30T06:05:12;16.70;99.90
27270;DHT22;14769;56.934;24.176;2022-07-30T06:06:14;16.70;99.90
27270;DHT22;14769;56.934;24.176;2022-07-30T06:07:23;16.70;99.90
27270;DHT22;14769;56.934;24.176;2022-07-30T06:08:24;16.70;99.90
27270;DHT22;14769;56.934;24.176;2022-07-30T06:09:26;16.70;99.90
27270;DHT22;14769;56.934;24.176;2022-07-30T06:10:37;16.80;99.90
27270;DHT22;14769;56.934;24.176;2022-07-30T06:11:39;16.80;99.90
27270;DHT22;14769;56.934;24.176;2022-07-30T06:12:41;16.90;99.90
27270;DHT22;14769;56.934;24.176;2022-07-30T06:13:43;16.90;99.90
27270;DHT22;14769;56.934;24.176;2022-07-30T06:14:45;17.00;99.90
27270;DHT22;14769;56.934;24.176;2022-07-30T06:15:47;17.10;99.90
27270;DHT22;14769;56.934;24.176;2022-07-30T06:16:49;17.20;99.90
27270;DHT22;14769;56.934;24.176;2022-07-30T06:17:51;17.40;99.90
27270;DHT22;14769;56.934;24.176;2022-07-30T06:19:03;17.50;99.90
27270;DHT22;14769;56.934;24.176;2022-07-30T06:20:05;17.70;99.90
27270;DHT22;14769;56.934;24.176;2022-07-30T06:21:07;17.80;99.90
27270;DHT22;14769;56.934;24.176;2022-07-30T06:22:09;17.90;99.90
27270;DHT22;14769;56.934;24.176;2022-07-30T06:23:11;18.00;99.90
27270;DHT22;14769;56.934;24.176;2022-07-30T06:24:13;18.10;99.90
27270;DHT22;14769;56.934;24.176;2022-07-30T06:25:15;18.20;99.90
27270;DHT22;14769;56.934;24.176;2022-07-30T06:26:19;18.30;99.10
27270;DHT22;14769;56.934;24.176;2022-07-30T06:27:21;18.30;97.90
27270;DHT22;14769;56.934;24.176;2022-07-30T06:28:23;18.40;97.00
27270;DHT22;14769;56.934;24.176;2022-07-30T06:29:40;18.50;96.20
27270;DHT22;14769;56.934;24.176;2022-07-30T06:30:42;18.50;96.10
27270;DHT22;14769;56.934;24.176;2022-07-30T06:31:46;18.60;96.50
27270;DHT22;14769;56.934;24.176;2022-07-30T06:32:48;18.70;95.50
27270;DHT22;14769;56.934;24.176;2022-07-30T06:33:50;18.80;93.30
27270;DHT22;14769;56.934;24.176;2022-07-30T06:34:51;18.90;91.90
27270;DHT22;14769;56.934;24.176;2022-07-30T06:36:03;18.90;91.10
27270;DHT22;14769;56.934;24.176;2022-07-30T06:37:04;19.00;90.00
27270;DHT22;14769;56.934;24.176;2022-07-30T06:38:06;18.90;90.10
27270;DHT22;14769;56.934;24.176;2022-07-30T06:39:08;18.90;89.60
27270;DHT22;14769;56.934;24.176;2022-07-30T06:40:10;18.90;90.70
27270;DHT22;14769;56.934;24.176;2022-07-30T06:41:12;18.90;91.50
27270;DHT22;14769;56.934;24.176;2022-07-30T06:42:16;18.90;91.90